createdAt,value
2022-09-07T00:00:06.336Z,16.08
2022-09-07T00:02:33.326Z,15.80
2022-09-07T00:05:00.302Z,15.81
2022-09-07T00:07:27.274Z,15.49
2022-09-07T00:09:54.240Z,15.31
2022-09-07T00:12:21.232Z,15.25
2022-09-07T00:14:48.261Z,15.46
2022-09-07T00:17:15.259Z,15.80
2022-09-07T00:19:42.277Z,15.74
2022-09-07T00:22:09.579Z,15.32
2022-09-07T00:24:36.663Z,15.36
2022-09-07T00:27:03.720Z,15.24
2022-09-07T00:29:30.640Z,15.44
2022-09-07T00:31:57.622Z,15.10
2022-09-07T00:34:24.603Z,15.09
2022-09-07T00:36:51.528Z,15.28
2022-09-07T00:39:18.587Z,15.35
2022-09-07T00:41:45.563Z,15.49
2022-09-07T00:44:40.599Z,15.53
2022-09-07T00:47:21.128Z,15.43
2022-09-07T00:49:54.777Z,15.23
2022-09-07T00:52:23.311Z,15.43
2022-09-07T00:54:56.790Z,15.35
2022-09-07T00:57:24.119Z,15.27
2022-09-07T00:59:53.092Z,15.60
2022-09-07T01:02:20.729Z,15.59
2022-09-07T01:05:01.944Z,15.70
2022-09-07T01:07:31.095Z,15.85
2022-09-07T01:09:58.294Z,15.63
2022-09-07T01:12:25.416Z,15.75
2022-09-07T01:14:53.726Z,15.76
2022-09-07T01:17:29.107Z,15.92
2022-09-07T01:20:25.106Z,16.21
2022-09-07T01:23:00.743Z,16.14
2022-09-07T01:26:01.529Z,16.01
2022-09-07T01:28:34.450Z,15.99
2022-09-07T01:31:18.633Z,16.12
2022-09-07T01:34:16.481Z,16.14
2022-09-07T01:36:48.997Z,15.84
2022-09-07T01:39:19.554Z,15.82
2022-09-07T01:41:58.579Z,16.03
2022-09-07T01:44:28.540Z,16.28
2022-09-07T01:47:14.147Z,16.23
2022-09-07T01:50:10.335Z,15.99
2022-09-07T01:52:53.335Z,15.91
2022-09-07T01:55:30.794Z,15.83
2022-09-07T01:58:15.103Z,15.28
2022-09-07T02:00:51.066Z,15.02
2022-09-07T02:03:25.707Z,14.92
2022-09-07T02:06:02.186Z,14.71
2022-09-07T02:08:35.582Z,14.28
2022-09-07T02:11:08.465Z,14.06
2022-09-07T02:13:40.684Z,14.29
2022-09-07T02:16:22.464Z,14.42
2022-09-07T02:18:55.371Z,14.47
2022-09-07T02:21:28.689Z,14.06
2022-09-07T02:24:10.339Z,14.19
2022-09-07T02:26:39.736Z,13.69
2022-09-07T02:29:07.692Z,13.93
2022-09-07T02:31:34.798Z,14.14
2022-09-07T02:34:02.137Z,13.99
2022-09-07T02:36:34.493Z,14.18
2022-09-07T02:39:01.525Z,14.34
2022-09-07T02:41:33.155Z,14.40
2022-09-07T02:44:02.576Z,14.54
2022-09-07T02:46:56.489Z,14.78
2022-09-07T02:50:02.074Z,14.27
2022-09-07T02:52:57.896Z,14.11
2022-09-07T02:55:49.116Z,14.03
2022-09-07T02:58:55.101Z,14.07
2022-09-07T03:01:24.732Z,13.82
2022-09-07T03:04:13.126Z,14.00
2022-09-07T03:07:04.954Z,14.23
2022-09-07T03:09:37.524Z,14.73
2022-09-07T03:12:05.622Z,14.36
2022-09-07T03:14:34.500Z,14.36
2022-09-07T03:17:02.374Z,14.66
2022-09-07T03:19:29.365Z,14.32
2022-09-07T03:21:56.298Z,13.99
2022-09-07T03:24:23.281Z,13.60
2022-09-07T03:26:52.026Z,13.92
2022-09-07T03:29:19.577Z,14.09
2022-09-07T03:31:46.622Z,14.18
2022-09-07T03:34:13.955Z,14.37
2022-09-07T03:36:41.095Z,14.29
2022-09-07T03:39:08.043Z,14.25
2022-09-07T03:41:35.055Z,14.58
2022-09-07T03:44:06.205Z,14.71
2022-09-07T03:46:34.410Z,14.86
2022-09-07T03:49:01.718Z,15.04
2022-09-07T03:51:28.738Z,15.25
2022-09-07T03:53:55.854Z,15.04
2022-09-07T03:56:24.367Z,15.04
2022-09-07T03:58:53.288Z,14.68
2022-09-07T04:01:23.582Z,14.89
2022-09-07T04:03:50.764Z,14.76
2022-09-07T04:06:19.661Z,14.72
2022-09-07T04:08:46.875Z,14.33
2022-09-07T04:11:17.205Z,14.00
2022-09-07T04:13:45.425Z,14.14
2022-09-07T04:16:22.513Z,14.10
2022-09-07T04:18:50.548Z,13.96
2022-09-07T04:21:18.804Z,14.45
2022-09-07T04:23:45.827Z,14.77
2022-09-07T04:26:23.559Z,14.91
2022-09-07T04:28:51.076Z,15.10
2022-09-07T04:31:19.459Z,15.40
2022-09-07T04:33:48.318Z,15.81
2022-09-07T04:36:16.732Z,16.16
2022-09-07T04:38:44.401Z,16.38
2022-09-07T04:41:15.372Z,16.40
2022-09-07T04:43:43.502Z,16.74
2022-09-07T04:46:25.778Z,17.12
2022-09-07T04:48:55.189Z,17.31
2022-09-07T04:51:25.220Z,17.71
2022-09-07T04:53:54.132Z,17.64
2022-09-07T04:56:21.930Z,17.87
2022-09-07T04:58:49.349Z,17.90
2022-09-07T05:01:19.300Z,17.98
2022-09-07T05:03:47.348Z,18.34
2022-09-07T05:06:15.273Z,18.65
2022-09-07T05:08:45.237Z,18.88
2022-09-07T05:11:13.741Z,19.82
2022-09-07T05:13:40.670Z,20.92
2022-09-07T05:16:13.430Z,22.37
2022-09-07T05:18:40.628Z,24.98
2022-09-07T05:21:13.983Z,26.52
2022-09-07T05:23:41.329Z,26.55
2022-09-07T05:26:09.412Z,27.80
2022-09-07T05:28:36.972Z,28.57
2022-09-07T05:36:38.344Z,29.81
2022-09-07T05:39:06.739Z,29.37
2022-09-07T05:41:34.204Z,29.38
2022-09-07T05:46:48.462Z,31.04
2022-09-07T05:49:15.418Z,29.95
2022-09-07T05:51:42.418Z,28.54
2022-09-07T05:54:11.353Z,27.59
2022-09-07T05:56:38.384Z,26.09
2022-09-07T05:59:05.381Z,24.63
2022-09-07T06:01:32.749Z,24.16
2022-09-07T06:04:00.582Z,23.65
2022-09-07T06:06:27.568Z,23.22
2022-09-07T06:08:54.538Z,23.41
2022-09-07T06:11:23.778Z,23.04
2022-09-07T06:13:52.114Z,23.02
2022-09-07T06:16:20.265Z,23.08
2022-09-07T06:18:49.080Z,23.32
2022-09-07T06:21:21.882Z,23.96
2022-09-07T06:23:50.062Z,24.16
2022-09-07T06:26:18.303Z,24.65
2022-09-07T06:28:50.182Z,24.87
2022-09-07T06:31:20.368Z,25.54
2022-09-07T06:33:48.673Z,25.80
2022-09-07T06:36:17.042Z,26.20
2022-09-07T06:38:44.803Z,25.94
2022-09-07T06:44:01.504Z,26.54
2022-09-07T06:49:15.787Z,27.66
2022-09-07T06:51:42.848Z,27.70
2022-09-07T06:56:57.100Z,30.69
2022-09-07T06:59:24.041Z,32.37
2022-09-07T07:01:50.956Z,33.90
2022-09-07T07:04:17.970Z,33.37
2022-09-07T07:06:44.907Z,35.18
2022-09-07T07:09:13.477Z,36.58
2022-09-07T07:11:40.435Z,33.79
2022-09-07T07:14:07.407Z,33.62
2022-09-07T07:16:36.356Z,33.49
2022-09-07T07:19:03.398Z,31.53
2022-09-07T07:21:42.992Z,32.07
2022-09-07T07:24:16.318Z,30.29
2022-09-07T07:26:48.662Z,30.16
2022-09-07T07:29:18.634Z,29.78
2022-09-07T07:31:47.302Z,29.62
2022-09-07T07:34:15.285Z,28.33
2022-09-07T07:36:42.306Z,29.94
2022-09-07T07:42:00.059Z,27.36
2022-09-07T07:44:30.315Z,26.79
2022-09-07T07:46:57.290Z,28.76
2022-09-07T07:49:24.376Z,27.80
2022-09-07T07:54:41.642Z,27.34
2022-09-07T07:57:08.946Z,28.58
2022-09-07T07:59:35.926Z,27.92
2022-09-07T08:02:05.269Z,27.50
2022-09-07T08:04:34.452Z,27.95
2022-09-07T08:07:08.690Z,29.04
2022-09-07T08:09:40.972Z,28.69
2022-09-07T08:12:08.844Z,28.03
2022-09-07T08:14:42.006Z,27.55
2022-09-07T08:17:11.473Z,27.22
2022-09-07T08:19:39.133Z,27.02
2022-09-07T08:22:06.402Z,27.79
2022-09-07T08:24:33.614Z,29.18
2022-09-07T08:27:00.807Z,28.30
2022-09-07T08:29:31.268Z,27.13
2022-09-07T08:32:00.862Z,26.46
2022-09-07T08:34:27.739Z,27.89
2022-09-07T08:36:54.961Z,27.10
2022-09-07T08:39:21.960Z,27.17
2022-09-07T08:41:59.931Z,27.39
2022-09-07T08:44:38.057Z,27.14
2022-09-07T08:47:32.402Z,26.76
2022-09-07T08:50:02.932Z,27.20
2022-09-07T08:52:51.272Z,27.62
2022-09-07T08:55:31.337Z,27.41
2022-09-07T08:58:32.233Z,27.93
2022-09-07T09:07:03.521Z,26.69
2022-09-07T09:09:51.892Z,26.68
2022-09-07T09:12:29.131Z,26.31
2022-09-07T09:14:59.061Z,26.32
2022-09-07T09:17:38.490Z,26.55
2022-09-07T09:20:35.639Z,26.85
2022-09-07T09:23:12.470Z,27.42
2022-09-07T09:25:47.090Z,28.52
2022-09-07T09:28:14.142Z,27.71
2022-09-07T09:30:42.051Z,26.42
2022-09-07T09:33:18.874Z,27.52
2022-09-07T09:35:51.348Z,26.63
2022-09-07T09:38:33.223Z,26.61
2022-09-07T09:41:06.724Z,27.97
2022-09-07T09:43:55.996Z,29.58
2022-09-07T09:46:33.276Z,26.98
2022-09-07T09:49:06.220Z,26.39
2022-09-07T09:54:42.170Z,27.44
2022-09-07T09:59:04.709Z,27.66
2022-09-07T10:00:35.391Z,26.44
2022-09-07T10:06:07.323Z,27.36
2022-09-07T10:08:37.152Z,28.73
2022-09-07T10:11:06.495Z,27.75
2022-09-07T10:13:43.919Z,27.34
2022-09-07T10:16:15.071Z,27.18
2022-09-07T10:18:56.298Z,25.70
2022-09-07T10:21:24.567Z,26.80
2022-09-07T10:24:13.399Z,27.13
2022-09-07T10:26:42.092Z,26.15
2022-09-07T10:29:12.201Z,26.85
2022-09-07T10:31:45.684Z,26.70
2022-09-07T10:34:26.576Z,26.16
2022-09-07T10:36:53.584Z,26.60
2022-09-07T10:39:51.079Z,26.51
2022-09-07T10:42:29.086Z,26.79
2022-09-07T10:45:17.198Z,26.66
2022-09-07T10:48:01.982Z,27.27
2022-09-07T10:50:50.220Z,26.67
2022-09-07T10:53:42.472Z,26.86
2022-09-07T10:56:15.733Z,26.76
2022-09-07T10:59:02.958Z,26.89
2022-09-07T11:02:12.146Z,27.46
2022-09-07T11:04:51.973Z,27.05
2022-09-07T11:07:22.026Z,26.79
2022-09-07T11:09:54.356Z,26.80
2022-09-07T11:12:36.209Z,27.07
2022-09-07T11:15:21.285Z,26.00
2022-09-07T11:18:02.953Z,25.67
2022-09-07T11:20:32.336Z,26.21
2022-09-07T11:23:16.933Z,26.04
2022-09-07T11:26:04.303Z,26.43
2022-09-07T11:29:29.087Z,26.44
2022-09-07T11:31:45.005Z,26.35
2022-09-07T11:34:33.792Z,26.95
2022-09-07T11:37:08.226Z,27.81
2022-09-07T11:39:38.147Z,27.44
2022-09-07T11:45:16.628Z,27.23
2022-09-07T11:47:56.439Z,26.72
2022-09-07T11:50:24.642Z,26.27
2022-09-07T11:53:00.714Z,26.96
2022-09-07T11:55:33.797Z,26.29
2022-09-07T11:58:24.072Z,27.02
2022-09-07T12:01:28.211Z,26.38
2022-09-07T12:04:24.923Z,26.20
2022-09-07T12:06:54.642Z,26.01
2022-09-07T12:09:58.116Z,25.76
2022-09-07T12:12:33.966Z,26.38
2022-09-07T12:15:34.587Z,26.60
2022-09-07T12:18:16.407Z,26.25
2022-09-07T12:20:44.145Z,25.64
2022-09-07T12:23:17.117Z,26.43
2022-09-07T12:25:46.348Z,25.87
2022-09-07T12:28:21.909Z,25.96
2022-09-07T12:30:59.293Z,26.02
2022-09-07T12:33:29.768Z,25.82
2022-09-07T12:35:59.096Z,25.59
2022-09-07T12:38:31.809Z,25.24
2022-09-07T12:41:02.423Z,25.77
2022-09-07T12:43:51.831Z,26.37
2022-09-07T12:46:34.996Z,26.34
2022-09-07T12:49:34.556Z,25.87
2022-09-07T12:52:25.730Z,26.00
2022-09-07T12:55:27.102Z,25.95
2022-09-07T12:58:25.768Z,26.12
2022-09-07T13:01:01.571Z,25.49
2022-09-07T13:03:50.284Z,25.36
2022-09-07T13:06:18.651Z,24.89
2022-09-07T13:08:48.685Z,24.80
2022-09-07T13:11:38.364Z,24.59
2022-09-07T13:14:09.479Z,24.72
2022-09-07T13:19:50.864Z,24.50
2022-09-07T13:22:33.005Z,24.75
2022-09-07T13:25:03.719Z,24.43
2022-09-07T13:27:57.414Z,24.19
2022-09-07T13:30:33.567Z,24.62
2022-09-07T13:33:25.457Z,24.37
2022-09-07T13:35:55.237Z,24.48
2022-09-07T13:38:23.380Z,24.24
2022-09-07T13:40:53.976Z,24.97
2022-09-07T13:43:24.669Z,24.52
2022-09-07T13:45:54.636Z,24.65
2022-09-07T13:48:51.529Z,24.49
2022-09-07T13:51:25.211Z,24.16
2022-09-07T13:54:18.783Z,24.31
2022-09-07T13:57:07.086Z,24.41
2022-09-07T13:59:35.383Z,23.80
2022-09-07T14:02:02.795Z,23.78
2022-09-07T14:04:36.698Z,24.33
2022-09-07T14:07:06.745Z,23.86
2022-09-07T14:09:46.004Z,23.83
2022-09-07T14:12:21.420Z,23.63
2022-09-07T14:15:28.032Z,23.48
2022-09-07T14:18:16.354Z,23.85
2022-09-07T14:20:49.775Z,23.59
2022-09-07T14:23:23.979Z,23.67
2022-09-07T14:26:23.292Z,23.61
2022-09-07T14:28:53.610Z,23.76
2022-09-07T14:31:22.691Z,23.61
2022-09-07T14:33:55.947Z,23.35
2022-09-07T14:36:43.975Z,23.45
2022-09-07T14:39:15.110Z,23.40
2022-09-07T14:41:43.425Z,23.44
2022-09-07T14:44:37.639Z,23.37
2022-09-07T14:47:30.677Z,23.18
2022-09-07T14:50:10.682Z,23.17
2022-09-07T14:53:33.143Z,23.12
2022-09-07T14:55:38.126Z,23.18
2022-09-07T14:58:15.014Z,23.03
2022-09-07T15:03:40.905Z,22.76
2022-09-07T15:07:00.933Z,22.93
2022-09-07T15:08:57.731Z,23.03
2022-09-07T15:11:34.893Z,22.89
2022-09-07T15:14:17.562Z,22.74
2022-09-07T15:16:45.618Z,22.70
2022-09-07T15:19:15.344Z,22.86
2022-09-07T15:21:43.753Z,22.75
2022-09-07T15:24:11.856Z,22.67
2022-09-07T15:29:29.106Z,22.47
2022-09-07T15:32:03.404Z,22.53
2022-09-07T15:34:32.581Z,22.46
2022-09-07T15:37:01.705Z,22.59
2022-09-07T15:39:34.480Z,22.52
2022-09-07T15:42:59.579Z,22.46
2022-09-07T15:44:50.332Z,22.40
2022-09-07T15:50:06.788Z,22.17
2022-09-07T15:52:34.006Z,22.29
2022-09-07T15:55:00.947Z,22.24
2022-09-07T16:00:17.305Z,22.06
2022-09-07T16:05:31.726Z,22.07
2022-09-07T16:10:53.502Z,21.79
2022-09-07T16:13:20.980Z,21.89
2022-09-07T16:15:48.996Z,21.91
2022-09-07T16:18:18.079Z,21.70
2022-09-07T16:20:45.827Z,21.60
2022-09-07T16:23:15.141Z,21.55
2022-09-07T16:25:56.137Z,21.59
2022-09-07T16:28:23.079Z,21.49
2022-09-07T16:30:50.346Z,21.43
2022-09-07T16:33:17.272Z,21.45
2022-09-07T16:35:44.145Z,21.49
2022-09-07T16:41:01.051Z,21.40
2022-09-07T16:43:28.231Z,21.32
2022-09-07T16:46:06.172Z,21.31
2022-09-07T16:48:35.925Z,21.24
2022-09-07T16:51:05.237Z,21.03
2022-09-07T16:53:35.024Z,21.00
2022-09-07T16:56:04.016Z,21.04
2022-09-07T16:58:36.565Z,21.09
2022-09-07T17:01:08.761Z,20.99
2022-09-07T17:03:39.586Z,20.91
2022-09-07T17:06:09.072Z,20.74
2022-09-07T17:08:37.674Z,20.66
2022-09-07T17:11:07.582Z,20.70
2022-09-07T17:13:36.157Z,20.66
2022-09-07T17:16:11.642Z,20.70
2022-09-07T17:21:36.860Z,20.72
2022-09-07T17:24:05.898Z,20.77
2022-09-07T17:26:33.451Z,20.78
2022-09-07T17:29:01.273Z,20.71
2022-09-07T17:34:21.738Z,20.79
2022-09-07T17:36:49.229Z,20.87
2022-09-07T17:39:18.153Z,20.76
2022-09-07T17:41:52.640Z,20.91
2022-09-07T17:44:20.521Z,20.80
2022-09-07T17:46:47.356Z,20.68
2022-09-07T17:49:16.825Z,20.72
2022-09-07T17:51:44.849Z,20.66
2022-09-07T17:54:14.890Z,20.68
2022-09-07T17:56:42.627Z,20.61
2022-09-07T18:01:57.793Z,20.99
2022-09-07T18:04:24.876Z,20.96
2022-09-07T18:06:53.071Z,20.97
2022-09-07T18:09:20.144Z,21.10
2022-09-07T18:11:49.120Z,21.49
2022-09-07T18:14:17.599Z,21.23
2022-09-07T18:16:46.261Z,21.07
2022-09-07T18:19:14.193Z,20.74
2022-09-07T18:21:43.450Z,21.10
2022-09-07T18:24:20.489Z,21.00
2022-09-07T18:26:51.506Z,21.01
2022-09-07T18:29:36.900Z,21.00
2022-09-07T18:32:09.440Z,21.05
2022-09-07T18:34:40.773Z,21.12
2022-09-07T18:37:08.383Z,21.49
2022-09-07T18:39:35.897Z,21.35
2022-09-07T18:42:03.165Z,21.43
2022-09-07T18:47:23.192Z,21.22
2022-09-07T18:49:54.849Z,21.11
2022-09-07T18:55:10.171Z,21.04
2022-09-07T18:57:37.676Z,21.02
2022-09-07T19:00:07.247Z,21.24
2022-09-07T19:02:34.218Z,21.34
2022-09-07T19:07:48.480Z,21.42
2022-09-07T19:10:17.044Z,21.51
2022-09-07T19:12:46.084Z,21.35
2022-09-07T19:15:13.794Z,21.25
2022-09-07T19:17:40.791Z,20.81
2022-09-07T19:20:08.477Z,20.72
2022-09-07T19:22:35.395Z,20.60
2022-09-07T19:25:02.355Z,20.40
2022-09-07T19:27:29.449Z,20.39
2022-09-07T19:29:56.354Z,20.30
2022-09-07T19:32:24.661Z,20.30
2022-09-07T19:34:54.732Z,20.15
2022-09-07T19:37:25.740Z,20.26
2022-09-07T19:39:56.803Z,20.24
2022-09-07T19:42:24.678Z,20.13
2022-09-07T19:44:52.420Z,20.05
2022-09-07T19:47:19.843Z,20.22
2022-09-07T19:49:46.809Z,20.57
2022-09-07T19:52:13.707Z,20.79
2022-09-07T19:54:40.842Z,20.67
2022-09-07T19:57:08.230Z,20.60
2022-09-07T19:59:35.379Z,20.81
2022-09-07T20:02:02.467Z,20.71
2022-09-07T20:04:29.791Z,20.72
2022-09-07T20:06:57.223Z,20.75
2022-09-07T20:09:26.000Z,20.67
2022-09-07T20:11:53.024Z,20.73
2022-09-07T20:14:20.521Z,21.03
2022-09-07T20:16:47.662Z,21.02
2022-09-07T20:19:15.191Z,21.13
2022-09-07T20:21:43.201Z,20.89
2022-09-07T20:24:14.577Z,20.53
2022-09-07T20:26:42.044Z,20.83
2022-09-07T20:29:27.884Z,20.46
2022-09-07T20:32:00.075Z,20.42
2022-09-07T20:34:28.714Z,20.55
2022-09-07T20:36:57.100Z,20.52
2022-09-07T20:39:24.307Z,20.63
2022-09-07T20:41:51.484Z,20.65
2022-09-07T20:44:19.065Z,20.75
2022-09-07T20:46:46.068Z,20.59
2022-09-07T20:49:13.146Z,20.60
2022-09-07T20:51:40.129Z,20.42
2022-09-07T20:54:07.388Z,20.35
2022-09-07T20:56:34.708Z,20.30
2022-09-07T20:59:02.798Z,20.29
2022-09-07T21:01:32.047Z,20.57
2022-09-07T21:04:00.789Z,20.67
2022-09-07T21:06:29.012Z,20.55
2022-09-07T21:08:57.333Z,20.54
2022-09-07T21:11:31.303Z,20.26
2022-09-07T21:14:00.688Z,20.13
2022-09-07T21:16:28.840Z,20.10
2022-09-07T21:18:58.422Z,19.90
2022-09-07T21:21:27.384Z,19.90
2022-09-07T21:23:57.014Z,20.14
2022-09-07T21:26:24.477Z,20.23
2022-09-07T21:28:59.616Z,20.35
2022-09-07T21:31:27.759Z,20.41
2022-09-07T21:33:56.480Z,20.48
2022-09-07T21:36:24.258Z,20.61
2022-09-07T21:38:52.011Z,20.34
2022-09-07T21:41:21.109Z,20.42
2022-09-07T21:43:48.246Z,20.38
2022-09-07T21:46:18.458Z,20.41
2022-09-07T21:48:46.391Z,20.27
2022-09-07T21:51:14.855Z,20.26
2022-09-07T21:53:42.958Z,20.22
2022-09-07T21:56:12.654Z,20.36
2022-09-07T21:58:40.474Z,20.19
2022-09-07T22:01:12.722Z,20.20
2022-09-07T22:03:40.716Z,20.25
2022-09-07T22:06:09.163Z,19.78
2022-09-07T22:08:37.641Z,19.59
2022-09-07T22:11:09.572Z,19.87
2022-09-07T22:13:36.961Z,19.99
2022-09-07T22:16:05.251Z,19.93
2022-09-07T22:18:32.294Z,20.15
2022-09-07T22:21:08.008Z,20.22
2022-09-07T22:23:37.995Z,20.02
2022-09-07T22:26:05.601Z,20.02
2022-09-07T22:28:32.899Z,19.84
2022-09-07T22:31:15.792Z,19.86
2022-09-07T22:33:43.948Z,19.92
2022-09-07T22:36:26.472Z,19.88
2022-09-07T22:38:55.841Z,20.12
2022-09-07T22:41:26.626Z,20.10
2022-09-07T22:43:54.051Z,20.00
2022-09-07T22:46:23.293Z,20.04
2022-09-07T22:48:50.711Z,20.14
2022-09-07T22:51:17.686Z,20.27
2022-09-07T22:53:45.204Z,19.68
2022-09-07T22:56:18.712Z,19.51
2022-09-07T22:58:50.680Z,19.51
2022-09-07T23:01:18.229Z,19.59
2022-09-07T23:03:45.772Z,19.77
2022-09-07T23:06:23.746Z,19.74
2022-09-07T23:08:52.224Z,19.77
2022-09-07T23:11:19.912Z,19.77
2022-09-07T23:13:53.890Z,19.68
2022-09-07T23:16:21.751Z,19.71
2022-09-07T23:18:49.064Z,19.24
2022-09-07T23:21:16.157Z,19.34
2022-09-07T23:23:43.067Z,19.55
2022-09-07T23:26:10.251Z,19.51
2022-09-07T23:28:37.201Z,19.41
2022-09-07T23:31:04.206Z,19.73
2022-09-07T23:33:31.183Z,19.73
2022-09-07T23:36:00.354Z,19.83
2022-09-07T23:38:28.123Z,19.69
2022-09-07T23:40:55.881Z,19.68
2022-09-07T23:48:18.503Z,19.42
2022-09-07T23:50:46.185Z,19.52
2022-09-07T23:53:13.726Z,19.46
2022-09-07T23:55:41.390Z,19.19
2022-09-07T23:58:09.450Z,19.25
